Kezdőlap
METAR-TAF:

METAR-TAF

Repülőterek :

Naval Air Station Whiting Field South

Milton, Florida, Amerikai Egyesült Államok

földrajzi szélesség: 30-41-50N, földrajzi hosszúság: 087-01-12W, magasság: 54 m

Jelenlegi meteorológiai megfigyelések

A jelentés 21 perccel ezelõtt készült, 02:56 UTC
Szélcsend
Hőmérséklet 26°C
Páratartalom 84%
Légköri nyomás 1018 hPa
Látótávolság: 16.1 km
Szakadozott felhőzet 3500 lábon
Szakadozott felhőzet 10000 lábon
Szakadozott felhőzet 25000 lábon

METAR: KNDZ 200256Z 00000KT 10SM BKN035 BKN100 BKN250 26/23 A3005 RMK AO2 SLP161 6//// T02610233 53014 PNO $

Idő: 22:17 (03:17 UTC)


TAF: hiányzik

Meteorológiai megfigyelések és előrejelzések több, mint 4000 repülőtéren (METAR és TAF jelentéseket).

A térképen piros és sárga pontok jelzik az elérhető meteorológiai állomásokat.

Mozgassa az egeret a pont fölött, hogy megjelenjen az állomás neve.

Azután kattintson az időjárási megfigyelések és előrejelzések megtekintéséhez.

A térkép megváltoztatása: kattintson a fekete keresztel jelölt zöld gombra ráközelítéshez, a vonallal jelölt zöld gombra távolításhoz, vagy a zöld nyilakra a szomszédos térképek eléréséhez.


METAR-TAF: